Time;durP1;ratioP1;P1;durP2;ratioP2;P2;SDS_P1;SDS_P2;PMS_P1;PMS_P2;Temp;Humidity;BMP_temperature;BMP_pressure;BME280_temperature;BME280_humidity;BME280_pressure;Samples;Min_cycle;Max_cycle;Signal;HPM_P1;HPM_P2
2023/04/29 00:01:01;;;;;;;73.57;23.23;;;;;;;;;;6138421;23;20020;-95
2023/04/29 00:03:31;;;;;;;60.78;21.55;;;;;;;;;;6174653;23;19997;-95
2023/04/29 00:05:58;;;;;;;72.40;20.85;;;;;;;;;;6176850;23;20010;-95
2023/04/29 00:08:24;;;;;;;65.55;21.70;;;;;;;;;;6176383;23;19997;-96
2023/04/29 00:10:51;;;;;;;62.00;21.85;;;;;;;;;;6153209;23;20033;-96
2023/04/29 00:13:17;;;;;;;61.33;21.83;;;;;;;;;;6151739;23;20010;-94
2023/04/29 00:15:53;;;;;;;66.90;21.85;;;;;;;;;;6174186;23;20053;-96
2023/04/29 00:18:20;;;;;;;69.93;21.48;;;;;;;;;;6173059;23;20033;-94
2023/04/29 00:21:09;;;;;;;50.88;19.58;;;;;;;;;;6147956;23;20015;-96
2023/04/29 00:23:39;;;;;;;60.17;21.48;;;;;;;;;;6159130;23;20025;-96
2023/04/29 00:26:15;;;;;;;70.85;21.67;;;;;;;;;;6173175;23;20005;-95
2023/04/29 00:29:09;;;;;;;51.85;19.38;;;;;;;;;;6162853;23;20381;-96
2023/04/29 00:31:39;;;;;;;58.17;20.75;;;;;;;;;;6145344;23;20236;-96
2023/04/29 00:34:05;;;;;;;69.38;22.08;;;;;;;;;;6163834;23;20010;-95
2023/04/29 00:36:32;;;;;;;55.45;19.67;;;;;;;;;;6138670;23;20021;-96
2023/04/29 00:38:59;;;;;;;60.65;20.88;;;;;;;;;;6140420;23;20001;-96
2023/04/29 00:41:45;;;;;;;62.28;19.83;;;;;;;;;;6140452;23;20380;-95
2023/04/29 00:44:15;;;;;;;59.90;20.10;;;;;;;;;;6118497;23;20009;-96
2023/04/29 00:46:42;;;;;;;56.72;20.08;;;;;;;;;;6140197;23;19997;-95
2023/04/29 00:49:08;;;;;;;55.92;18.83;;;;;;;;;;6162534;23;20009;-94
2023/04/29 00:51:35;;;;;;;53.70;18.83;;;;;;;;;;6138134;23;20078;-96
2023/04/29 00:54:02;;;;;;;54.28;19.50;;;;;;;;;;6162666;23;20014;-95
2023/04/29 00:56:29;;;;;;;43.25;18.33;;;;;;;;;;6136343;23;20017;-96
2023/04/29 00:59:16;;;;;;;59.88;19.40;;;;;;;;;;6162538;23;20009;-96
2023/04/29 01:01:44;;;;;;;48.65;18.23;;;;;;;;;;6117839;23;20063;-95
2023/04/29 01:04:10;;;;;;;51.53;17.77;;;;;;;;;;6136710;23;20013;-95
2023/04/29 01:07:00;;;;;;;49.42;17.40;;;;;;;;;;6163295;23;20013;-94
2023/04/29 01:09:37;;;;;;;46.15;18.05;;;;;;;;;;6161130;23;20013;-94
2023/04/29 01:12:07;;;;;;;58.47;18.00;;;;;;;;;;6158970;23;20072;-94
2023/04/29 01:14:36;;;;;;;49.92;17.73;;;;;;;;;;6159392;23;20005;-94
2023/04/29 01:17:07;;;;;;;40.58;16.95;;;;;;;;;;6159130;23;20184;-94
2023/04/29 01:19:49;;;;;;;48.03;17.90;;;;;;;;;;6159929;23;20012;-94
2023/04/29 01:22:22;;;;;;;47.50;17.25;;;;;;;;;;6158461;23;20333;-94
2023/04/29 01:24:48;;;;;;;49.65;17.13;;;;;;;;;;6156765;23;20006;-95
2023/04/29 01:27:35;;;;;;;47.85;16.65;;;;;;;;;;6160209;23;20020;-95
2023/04/29 01:30:28;;;;;;;48.72;20.02;;;;;;;;;;6159335;23;20025;-95
2023/04/29 01:33:04;;;;;;;38.67;17.05;;;;;;;;;;6158994;23;20374;-95
2023/04/29 01:35:47;;;;;;;41.30;16.15;;;;;;;;;;6157381;23;20040;-95
2023/04/29 01:38:52;;;;;;;47.95;17.60;;;;;;;;;;6159679;23;20009;-95
2023/04/29 01:41:22;;;;;;;54.42;18.48;;;;;;;;;;6074734;23;20006;-94
2023/04/29 01:43:51;;;;;;;54.95;19.65;;;;;;;;;;6073188;23;20058;-95
2023/04/29 01:46:18;;;;;;;49.92;18.42;;;;;;;;;;6115925;23;20013;-95
2023/04/29 01:48:45;;;;;;;43.92;18.15;;;;;;;;;;6134876;23;20001;-95
2023/04/29 01:51:11;;;;;;;50.45;18.33;;;;;;;;;;6160069;23;20017;-95
2023/04/29 01:54:04;;;;;;;48.75;18.95;;;;;;;;;;6160060;23;20439;-95
2023/04/29 01:56:30;;;;;;;49.90;18.45;;;;;;;;;;6148427;23;20013;-95
2023/04/29 01:58:56;;;;;;;54.38;18.60;;;;;;;;;;6160635;23;20012;-95
2023/04/29 02:01:22;;;;;;;40.75;17.77;;;;;;;;;;6159914;23;20016;-94
2023/04/29 02:03:49;;;;;;;57.30;18.55;;;;;;;;;;6133437;23;20009;-96
2023/04/29 02:06:15;;;;;;;46.83;19.02;;;;;;;;;;6159429;23;20013;-94
2023/04/29 02:08:41;;;;;;;50.67;19.73;;;;;;;;;;6159358;23;20053;-95
2023/04/29 02:11:07;;;;;;;54.45;19.17;;;;;;;;;;6134035;23;20020;-94
2023/04/29 02:13:34;;;;;;;57.55;19.85;;;;;;;;;;6134986;23;20013;-94
2023/04/29 02:16:10;;;;;;;48.65;18.75;;;;;;;;;;6157827;23;20002;-95
2023/04/29 02:21:23;;;;;;;62.38;19.67;;;;;;;;;;6148325;23;20092;-94
2023/04/29 02:23:50;;;;;;;75.88;19.60;;;;;;;;;;6133099;23;20013;-94
2023/04/29 02:26:19;;;;;;;57.13;19.85;;;;;;;;;;6132027;23;20013;-95
2023/04/29 02:28:46;;;;;;;60.92;18.17;;;;;;;;;;6133939;23;20108;-95
2023/04/29 02:31:12;;;;;;;58.80;17.52;;;;;;;;;;6158432;23;20005;-94
2023/04/29 02:33:45;;;;;;;57.75;18.25;;;;;;;;;;6158731;23;20010;-95
2023/04/29 02:36:11;;;;;;;50.67;18.42;;;;;;;;;;6159222;23;20032;-94
2023/04/29 02:38:41;;;;;;;54.03;18.67;;;;;;;;;;6134712;23;20051;-94
2023/04/29 02:41:07;;;;;;;45.00;18.00;;;;;;;;;;6155022;23;20006;-95
2023/04/29 02:43:33;;;;;;;51.00;18.17;;;;;;;;;;6159682;23;20053;-94
2023/04/29 02:46:03;;;;;;;45.47;17.33;;;;;;;;;;6158112;23;20032;-95
2023/04/29 02:48:29;;;;;;;55.00;19.92;;;;;;;;;;6136551;23;20144;-95
2023/04/29 02:50:58;;;;;;;56.15;18.65;;;;;;;;;;6133701;23;20021;-94
2023/04/29 02:53:24;;;;;;;59.15;20.52;;;;;;;;;;6135253;23;20017;-95
2023/04/29 02:55:52;;;;;;;57.60;20.30;;;;;;;;;;6158392;23;20025;-95
2023/04/29 02:58:18;;;;;;;55.70;18.50;;;;;;;;;;6161805;23;20432;-95
2023/04/29 03:00:44;;;;;;;57.60;19.02;;;;;;;;;;6157493;23;20002;-95
2023/04/29 03:03:10;;;;;;;58.58;18.83;;;;;;;;;;6156927;23;20372;-95
2023/04/29 03:05:38;;;;;;;55.63;19.38;;;;;;;;;;6160195;23;20012;-95
2023/04/29 03:08:04;;;;;;;57.92;19.45;;;;;;;;;;6134558;23;20021;-95
2023/04/29 03:10:30;;;;;;;52.33;17.83;;;;;;;;;;6135674;23;20030;-95
2023/04/29 03:12:59;;;;;;;52.15;17.10;;;;;;;;;;6136599;23;20017;-94
2023/04/29 03:15:25;;;;;;;49.42;16.80;;;;;;;;;;6135838;23;20092;-96
2023/04/29 03:17:58;;;;;;;54.63;17.00;;;;;;;;;;6160686;23;20010;-95
2023/04/29 03:20:24;;;;;;;56.10;18.08;;;;;;;;;;6136721;23;20450;-95
2023/04/29 03:22:50;;;;;;;43.08;16.38;;;;;;;;;;6137917;23;20010;-95
2023/04/29 03:25:17;;;;;;;47.25;15.63;;;;;;;;;;6161227;23;20050;-94
2023/04/29 03:27:44;;;;;;;48.08;15.90;;;;;;;;;;6159424;23;20005;-95
2023/04/29 03:30:17;;;;;;;51.72;15.07;;;;;;;;;;6136164;23;20021;-95
2023/04/29 03:32:54;;;;;;;51.97;16.20;;;;;;;;;;6137404;23;20080;-94
2023/04/29 03:35:29;;;;;;;42.00;14.70;;;;;;;;;;6160319;23;20013;-94
2023/04/29 03:37:55;;;;;;;46.30;15.13;;;;;;;;;;6161559;23;20018;-95
2023/04/29 03:40:21;;;;;;;39.17;15.05;;;;;;;;;;6135457;23;20010;-94
2023/04/29 03:42:47;;;;;;;39.08;14.90;;;;;;;;;;6160904;23;20005;-93
2023/04/29 03:45:15;;;;;;;45.35;15.93;;;;;;;;;;6136188;23;20391;-95
2023/04/29 03:47:42;;;;;;;43.42;15.07;;;;;;;;;;6138050;23;20044;-95
2023/04/29 03:50:09;;;;;;;42.58;13.82;;;;;;;;;;6167880;23;19997;-95
2023/04/29 03:52:38;;;;;;;47.55;14.55;;;;;;;;;;6176434;23;19998;-95
2023/04/29 03:55:05;;;;;;;38.50;13.40;;;;;;;;;;6153638;23;19993;-95
2023/04/29 03:57:31;;;;;;;46.72;15.40;;;;;;;;;;6152047;23;20017;-95
2023/04/29 04:00:07;;;;;;;39.08;14.98;;;;;;;;;;6177042;23;20041;-95
2023/04/29 04:02:34;;;;;;;48.53;14.05;;;;;;;;;;6148571;23;20013;-94
2023/04/29 04:05:00;;;;;;;41.67;13.30;;;;;;;;;;6172699;23;20009;-95
2023/04/29 04:07:27;;;;;;;35.33;14.35;;;;;;;;;;6145705;23;20043;-95
2023/04/29 04:09:53;;;;;;;38.28;13.40;;;;;;;;;;6166636;23;20025;-95
2023/04/29 04:12:20;;;;;;;46.45;13.82;;;;;;;;;;6139117;23;20196;-94
2023/04/29 04:14:46;;;;;;;40.95;13.30;;;;;;;;;;6139010;23;20020;-94
2023/04/29 04:17:12;;;;;;;40.58;14.20;;;;;;;;;;6136040;23;20128;-95
2023/04/29 04:19:39;;;;;;;48.53;15.13;;;;;;;;;;6138214;23;20010;-95
2023/04/29 04:22:06;;;;;;;41.03;14.32;;;;;;;;;;6139134;23;20471;-95
2023/04/29 04:24:34;;;;;;;48.22;15.82;;;;;;;;;;6162578;23;20001;-94
2023/04/29 04:27:00;;;;;;;47.78;15.70;;;;;;;;;;6138969;23;20474;-94
2023/04/29 04:29:33;;;;;;;36.88;14.65;;;;;;;;;;6140641;23;20020;-93
2023/04/29 04:32:06;;;;;;;45.00;14.70;;;;;;;;;;6143923;23;20084;-95
2023/04/29 04:34:32;;;;;;;44.75;14.52;;;;;;;;;;6171733;23;20350;-94
2023/04/29 04:36:58;;;;;;;36.25;14.90;;;;;;;;;;6146668;23;20028;-93
2023/04/29 04:39:24;;;;;;;41.70;15.00;;;;;;;;;;6145335;23;20006;-95
2023/04/29 04:41:54;;;;;;;49.28;15.23;;;;;;;;;;6143525;23;20005;-94
2023/04/29 04:44:23;;;;;;;43.58;14.57;;;;;;;;;;6166845;23;20020;-95
2023/04/29 04:46:52;;;;;;;42.95;14.32;;;;;;;;;;6146065;23;20033;-94
2023/04/29 04:49:18;;;;;;;39.90;14.95;;;;;;;;;;6145746;23;20010;-94
2023/04/29 04:51:46;;;;;;;48.95;14.93;;;;;;;;;;6146827;23;20013;-94
2023/04/29 04:54:12;;;;;;;47.10;15.10;;;;;;;;;;6146866;23;20175;-94
2023/04/29 04:56:38;;;;;;;44.28;15.50;;;;;;;;;;6147029;23;20001;-94
2023/04/29 04:59:04;;;;;;;42.35;14.55;;;;;;;;;;6146013;23;20017;-94
2023/04/29 05:01:31;;;;;;;37.00;14.13;;;;;;;;;;6170677;23;20013;-94
2023/04/29 05:03:57;;;;;;;46.15;15.10;;;;;;;;;;6169914;23;20006;-94
2023/04/29 05:06:27;;;;;;;49.92;14.68;;;;;;;;;;6146266;23;20005;-94
2023/04/29 05:08:53;;;;;;;48.05;16.02;;;;;;;;;;6169263;23;20037;-94
2023/04/29 05:11:20;;;;;;;50.03;15.88;;;;;;;;;;6146009;23;20339;-93
2023/04/29 05:13:47;;;;;;;40.70;15.18;;;;;;;;;;6169243;23;20013;-94
2023/04/29 05:16:39;;;;;;;42.83;14.73;;;;;;;;;;6170097;23;20013;-94
2023/04/29 05:19:05;;;;;;;42.65;15.52;;;;;;;;;;6165596;23;20009;-95
2023/04/29 05:21:32;;;;;;;45.80;14.23;;;;;;;;;;6170898;23;20012;-94
2023/04/29 05:23:58;;;;;;;38.00;14.68;;;;;;;;;;6148030;23;20014;-93
2023/04/29 05:26:33;;;;;;;37.65;13.43;;;;;;;;;;6171367;23;20005;-94
2023/04/29 05:29:00;;;;;;;40.97;14.68;;;;;;;;;;6172743;23;20037;-94
2023/04/29 05:31:27;;;;;;;33.95;14.20;;;;;;;;;;6157873;23;20017;-94
2023/04/29 05:33:53;;;;;;;46.60;14.50;;;;;;;;;;6118707;23;20010;-94
2023/04/29 05:36:20;;;;;;;37.03;13.98;;;;;;;;;;6094177;23;20062;-95
2023/04/29 05:38:46;;;;;;;40.13;13.07;;;;;;;;;;6094873;23;20041;-93
2023/04/29 05:41:13;;;;;;;44.80;13.18;;;;;;;;;;6093976;23;20196;-95
2023/04/29 05:43:39;;;;;;;30.10;12.80;;;;;;;;;;6116812;23;20002;-95
2023/04/29 05:46:07;;;;;;;32.72;13.25;;;;;;;;;;6118762;23;20029;-95
2023/04/29 05:48:33;;;;;;;46.58;12.73;;;;;;;;;;6095975;23;20283;-95
2023/04/29 05:50:59;;;;;;;35.70;13.93;;;;;;;;;;6095636;23;20014;-93
2023/04/29 05:53:25;;;;;;;39.88;13.48;;;;;;;;;;6097409;23;20025;-95
2023/04/29 05:55:52;;;;;;;37.97;13.02;;;;;;;;;;6121104;23;20253;-95
2023/04/29 05:58:18;;;;;;;31.60;12.48;;;;;;;;;;6097415;23;20017;-95
2023/04/29 06:00:44;;;;;;;31.05;12.35;;;;;;;;;;6120126;23;20006;-95
2023/04/29 06:03:14;;;;;;;35.05;13.90;;;;;;;;;;6120774;23;20065;-96
2023/04/29 06:05:40;;;;;;;27.73;12.85;;;;;;;;;;6119759;23;20006;-95
2023/04/29 06:08:14;;;;;;;26.10;12.57;;;;;;;;;;6119513;23;20073;-95
2023/04/29 06:10:44;;;;;;;36.00;12.55;;;;;;;;;;6096808;23;20029;-95
2023/04/29 06:13:19;;;;;;;31.13;11.88;;;;;;;;;;6121861;23;20086;-93
2023/04/29 06:15:47;;;;;;;28.48;13.68;;;;;;;;;;6121455;23;20046;-96
2023/04/29 06:18:16;;;;;;;23.90;10.85;;;;;;;;;;6120296;23;20252;-95
2023/04/29 06:20:42;;;;;;;24.98;11.40;;;;;;;;;;6120292;23;20080;-95
2023/04/29 06:23:08;;;;;;;22.63;10.27;;;;;;;;;;6095026;23;20073;-96
2023/04/29 06:25:35;;;;;;;19.98;9.82;;;;;;;;;;6118349;23;19998;-95
2023/04/29 06:28:04;;;;;;;25.98;10.30;;;;;;;;;;6094869;23;20014;-96
2023/04/29 06:30:46;;;;;;;27.05;10.40;;;;;;;;;;6101325;23;20057;-95
2023/04/29 06:33:19;;;;;;;18.15;8.30;;;;;;;;;;6146712;23;20009;-96
2023/04/29 06:35:45;;;;;;;15.95;7.10;;;;;;;;;;6124178;23;20018;-95
2023/04/29 06:38:11;;;;;;;14.25;7.55;;;;;;;;;;6124768;23;20017;-95
2023/04/29 06:40:37;;;;;;;14.13;7.72;;;;;;;;;;6122912;23;20069;-96
2023/04/29 06:43:04;;;;;;;16.55;7.47;;;;;;;;;;6122907;23;20006;-96
2023/04/29 06:45:30;;;;;;;17.77;7.40;;;;;;;;;;6145053;23;20006;-95
2023/04/29 06:47:57;;;;;;;18.77;7.53;;;;;;;;;;6119529;23;20407;-96
2023/04/29 06:50:23;;;;;;;14.43;7.30;;;;;;;;;;6122550;23;20016;-94
2023/04/29 06:52:50;;;;;;;17.42;7.28;;;;;;;;;;6143931;23;20065;-95
2023/04/29 06:55:17;;;;;;;14.48;6.90;;;;;;;;;;6142534;23;20013;-96
2023/04/29 06:57:53;;;;;;;16.92;6.65;;;;;;;;;;6143502;23;20061;-95
2023/04/29 07:00:21;;;;;;;15.60;7.00;;;;;;;;;;6143438;23;20001;-96
2023/04/29 07:02:47;;;;;;;15.00;7.25;;;;;;;;;;6113863;23;20017;-95
2023/04/29 07:05:13;;;;;;;11.77;6.60;;;;;;;;;;6142638;23;20005;-95
2023/04/29 07:07:40;;;;;;;12.85;7.00;;;;;;;;;;6119054;23;20012;-95
2023/04/29 07:10:06;;;;;;;20.27;7.70;;;;;;;;;;6118601;23;20009;-96
2023/04/29 07:12:33;;;;;;;20.10;7.15;;;;;;;;;;6119157;23;20017;-95
2023/04/29 07:15:02;;;;;;;11.70;6.57;;;;;;;;;;6143414;23;20062;-95
2023/04/29 07:17:37;;;;;;;25.45;10.77;;;;;;;;;;6141556;23;20018;-95
2023/04/29 07:20:04;;;;;;;15.55;6.95;;;;;;;;;;6142978;23;20093;-94
2023/04/29 07:22:33;;;;;;;15.45;7.53;;;;;;;;;;6142386;23;20005;-96
2023/04/29 07:25:03;;;;;;;14.75;5.97;;;;;;;;;;6143649;23;20005;-96
2023/04/29 07:27:29;;;;;;;12.57;6.13;;;;;;;;;;6119704;23;20005;-95
2023/04/29 07:30:15;;;;;;;16.98;5.32;;;;;;;;;;6151356;23;20436;-95
2023/04/29 07:32:41;;;;;;;11.68;6.90;;;;;;;;;;6175472;23;20031;-95
2023/04/29 07:35:08;;;;;;;14.10;5.43;;;;;;;;;;6154341;23;20078;-94
2023/04/29 07:37:39;;;;;;;17.42;6.05;;;;;;;;;;6179925;23;20006;-95
2023/04/29 07:40:06;;;;;;;13.50;5.13;;;;;;;;;;6154837;23;20006;-95
2023/04/29 07:42:51;;;;;;;12.25;5.63;;;;;;;;;;6154210;23;20017;-94
2023/04/29 07:45:20;;;;;;;8.57;4.60;;;;;;;;;;6179398;23;19998;-96
2023/04/29 07:55:39;;;;;;;;;;;;;;;;;;6169958;23;20405;-93
2023/04/29 07:58:09;;;;;;;13.32;4.78;;;;;;;;;;6165561;23;19922;-93
2023/04/29 08:00:35;;;;;;;11.07;4.55;;;;;;;;;;6163226;23;20093;-94
2023/04/29 08:03:01;;;;;;;15.35;4.57;;;;;;;;;;6139308;23;20014;-93
2023/04/29 08:05:29;;;;;;;15.13;5.07;;;;;;;;;;6139883;23;20006;-92
2023/04/29 08:07:55;;;;;;;12.80;4.32;;;;;;;;;;6166095;23;20092;-94
2023/04/29 08:10:25;;;;;;;13.02;5.28;;;;;;;;;;6140826;23;20009;-93
2023/04/29 08:12:52;;;;;;;15.90;5.65;;;;;;;;;;6166118;23;20033;-93
2023/04/29 08:15:21;;;;;;;10.75;4.88;;;;;;;;;;6163229;23;20121;-93
2023/04/29 08:17:53;;;;;;;10.48;5.30;;;;;;;;;;6140318;23;20005;-94
2023/04/29 08:20:21;;;;;;;15.20;4.72;;;;;;;;;;6140741;23;20005;-93
2023/04/29 08:22:49;;;;;;;13.50;5.78;;;;;;;;;;6162875;23;20009;-93
2023/04/29 08:25:19;;;;;;;12.95;4.68;;;;;;;;;;6164732;23;20005;-93
2023/04/29 08:27:51;;;;;;;14.80;5.03;;;;;;;;;;6166699;23;20156;-93
2023/04/29 08:30:18;;;;;;;13.30;5.50;;;;;;;;;;6142696;23;20020;-94
2023/04/29 08:32:46;;;;;;;12.32;5.20;;;;;;;;;;6164473;23;20068;-92
2023/04/29 08:35:12;;;;;;;8.43;4.63;;;;;;;;;;6166044;23;20013;-93
2023/04/29 08:37:48;;;;;;;14.15;6.18;;;;;;;;;;6166251;23;20459;-93
2023/04/29 08:40:18;;;;;;;13.48;5.05;;;;;;;;;;6137047;23;20033;-94
2023/04/29 08:42:45;;;;;;;14.27;7.78;;;;;;;;;;6136914;23;20014;-94
2023/04/29 08:45:13;;;;;;;12.35;5.20;;;;;;;;;;6136891;23;20433;-93
2023/04/29 08:47:41;;;;;;;15.68;5.28;;;;;;;;;;6136456;23;20006;-94
2023/04/29 08:50:08;;;;;;;10.63;4.82;;;;;;;;;;6139384;23;20051;-94
2023/04/29 08:52:40;;;;;;;17.02;4.45;;;;;;;;;;6138240;23;20030;-94
2023/04/29 08:55:08;;;;;;;11.07;4.53;;;;;;;;;;6138718;23;20010;-93
2023/04/29 08:57:46;;;;;;;12.13;4.68;;;;;;;;;;6136219;23;20018;-94
2023/04/29 09:00:13;;;;;;;15.32;4.78;;;;;;;;;;6113572;23;20013;-93
2023/04/29 09:02:48;;;;;;;9.98;4.10;;;;;;;;;;6136567;23;20006;-93
2023/04/29 09:05:26;;;;;;;13.63;4.28;;;;;;;;;;6137927;23;20018;-95
2023/04/29 09:08:03;;;;;;;12.68;5.05;;;;;;;;;;6139334;23;20020;-94
2023/04/29 09:11:26;;;;;;;6.70;3.25;;;;;;;;;;6142091;23;19994;-94
2023/04/29 09:13:58;;;;;;;9.32;4.20;;;;;;;;;;6140251;23;20033;-95
2023/04/29 09:16:30;;;;;;;10.70;3.70;;;;;;;;;;6139936;23;20006;-94
2023/04/29 09:19:07;;;;;;;10.43;3.95;;;;;;;;;;6142485;23;20009;-94
2023/04/29 09:21:33;;;;;;;5.22;3.15;;;;;;;;;;6140114;23;20444;-94
2023/04/29 09:24:04;;;;;;;10.25;3.70;;;;;;;;;;6138234;23;20033;-94
2023/04/29 09:26:56;;;;;;;8.48;4.82;;;;;;;;;;6139346;23;20013;-94
2023/04/29 09:29:22;;;;;;;6.72;3.78;;;;;;;;;;6135570;23;20024;-93
2023/04/29 09:31:57;;;;;;;9.50;3.75;;;;;;;;;;6137205;23;20042;-95
2023/04/29 09:34:53;;;;;;;17.45;4.47;;;;;;;;;;6139899;23;20014;-96
2023/04/29 09:37:32;;;;;;;9.63;4.07;;;;;;;;;;6125205;23;20050;-95
2023/04/29 09:39:59;;;;;;;8.27;4.05;;;;;;;;;;6136657;23;20070;-95
2023/04/29 09:42:46;;;;;;;5.97;4.18;;;;;;;;;;6138209;23;20391;-94
2023/04/29 09:45:19;;;;;;;8.48;4.45;;;;;;;;;;6135469;23;20006;-95
2023/04/29 09:47:45;;;;;;;8.35;5.05;;;;;;;;;;6138583;23;20001;-95
2023/04/29 09:50:15;;;;;;;12.98;4.90;;;;;;;;;;6112389;23;20440;-94
2023/04/29 09:52:43;;;;;;;10.07;4.22;;;;;;;;;;6112387;23;20049;-94
2023/04/29 09:55:14;;;;;;;10.07;3.72;;;;;;;;;;6110563;23;20010;-95
2023/04/29 09:57:41;;;;;;;12.23;4.07;;;;;;;;;;6115546;23;20858;-95
2023/04/29 10:00:18;;;;;;;9.88;4.32;;;;;;;;;;6111832;23;20012;-95
2023/04/29 10:03:06;;;;;;;10.65;4.53;;;;;;;;;;6112451;23;20006;-95
2023/04/29 10:05:48;;;;;;;7.55;4.03;;;;;;;;;;6115214;23;20013;-95
2023/04/29 10:08:18;;;;;;;8.77;4.70;;;;;;;;;;6138128;23;20061;-96
2023/04/29 10:11:02;;;;;;;11.13;5.00;;;;;;;;;;6138647;23;20006;-93
2023/04/29 10:13:29;;;;;;;10.43;4.28;;;;;;;;;;6114425;23;20004;-95
2023/04/29 10:16:01;;;;;;;11.73;4.35;;;;;;;;;;6111940;23;20030;-96
2023/04/29 10:18:36;;;;;;;8.13;5.03;;;;;;;;;;6112732;23;20005;-95
2023/04/29 10:21:04;;;;;;;10.75;5.40;;;;;;;;;;6123717;23;20017;-96
2023/04/29 10:23:33;;;;;;;7.35;4.95;;;;;;;;;;6137794;23;20006;-95
2023/04/29 10:26:05;;;;;;;14.45;5.20;;;;;;;;;;6138383;23;20372;-95
2023/04/29 10:28:33;;;;;;;11.60;5.03;;;;;;;;;;6139796;23;19994;-95
2023/04/29 10:31:06;;;;;;;15.00;5.28;;;;;;;;;;6138686;23;20069;-95
2023/04/29 10:33:36;;;;;;;10.75;5.22;;;;;;;;;;6139946;23;20057;-94
2023/04/29 10:36:02;;;;;;;9.00;4.70;;;;;;;;;;6140064;23;20090;-94
2023/04/29 10:38:49;;;;;;;5.78;4.15;;;;;;;;;;6139826;23;20006;-95
2023/04/29 10:41:32;;;;;;;11.68;4.93;;;;;;;;;;6139175;23;19990;-95
2023/04/29 10:44:12;;;;;;;9.40;4.85;;;;;;;;;;6141106;23;20006;-96
2023/04/29 10:46:38;;;;;;;7.00;3.60;;;;;;;;;;6142323;23;20381;-95
2023/04/29 10:49:10;;;;;;;4.32;2.78;;;;;;;;;;6140357;23;20021;-95
2023/04/29 10:51:44;;;;;;;5.57;2.40;;;;;;;;;;6141894;23;20009;-95
2023/04/29 10:55:01;;;;;;;4.25;2.47;;;;;;;;;;6140830;23;20066;-95
2023/04/29 10:57:24;;;;;;;5.18;2.42;;;;;;;;;;6138109;23;20033;-96
2023/04/29 10:59:57;;;;;;;3.50;2.20;;;;;;;;;;6139022;23;20006;-95
2023/04/29 11:02:27;;;;;;;4.03;2.42;;;;;;;;;;6139113;23;20006;-95
2023/04/29 11:05:08;;;;;;;4.22;2.08;;;;;;;;;;6139952;23;20344;-95
2023/04/29 11:07:36;;;;;;;1.73;1.63;;;;;;;;;;6140516;23;20005;-96
2023/04/29 11:10:25;;;;;;;5.28;1.85;;;;;;;;;;6114993;23;20017;-96
2023/04/29 11:13:11;;;;;;;9.52;2.38;;;;;;;;;;6145431;23;20006;-96
2023/04/29 11:15:45;;;;;;;5.18;2.50;;;;;;;;;;6139571;23;20004;-96
2023/04/29 11:18:34;;;;;;;5.75;2.40;;;;;;;;;;6137827;23;20009;-96
2023/04/29 11:21:06;;;;;;;4.65;2.17;;;;;;;;;;6138269;23;20010;-96
2023/04/29 11:23:46;;;;;;;7.47;2.67;;;;;;;;;;6139293;23;20447;-95
2023/04/29 11:29:11;;;;;;;3.72;2.22;;;;;;;;;;6151938;23;20029;-96
2023/04/29 15:16:10;;;;;;;5.80;2.85;;;;;;;;;;6213996;23;20485;-96
2023/04/29 15:18:51;;;;;;;5.05;2.53;;;;;;;;;;6225964;22;20036;-96
2023/04/29 15:21:27;;;;;;;5.03;2.65;;;;;;;;;;6202068;23;20371;-96
2023/04/29 15:24:00;;;;;;;4.25;2.38;;;;;;;;;;6228837;23;20039;-96
2023/04/29 15:26:27;;;;;;;4.03;2.47;;;;;;;;;;6201462;23;20001;-96
2023/04/29 15:28:56;;;;;;;6.97;2.95;;;;;;;;;;6228993;23;20031;-96
2023/04/29 15:31:30;;;;;;;5.25;2.42;;;;;;;;;;6231016;23;20120;-96
2023/04/29 15:36:44;;;;;;;3.65;2.55;;;;;;;;;;6234914;23;20071;-96
2023/04/29 15:39:16;;;;;;;4.43;2.78;;;;;;;;;;6211738;23;20000;-96
2023/04/29 15:41:44;;;;;;;3.88;2.13;;;;;;;;;;6211763;23;20005;-96
2023/04/29 15:44:10;;;;;;;3.58;2.72;;;;;;;;;;6233429;23;20008;-96
2023/04/29 15:46:36;;;;;;;3.85;2.63;;;;;;;;;;6232403;23;20015;-96
2023/04/29 15:49:12;;;;;;;4.60;2.50;;;;;;;;;;6210355;23;20008;-96
2023/04/29 15:51:54;;;;;;;5.80;2.83;;;;;;;;;;6239045;23;20009;-96
2023/04/29 15:54:24;;;;;;;4.53;2.90;;;;;;;;;;6236200;23;20008;-96
2023/04/29 15:56:54;;;;;;;5.88;2.88;;;;;;;;;;6234660;23;20011;-96
2023/04/29 15:59:24;;;;;;;4.28;2.90;;;;;;;;;;6235402;23;20004;-96
2023/04/29 16:01:56;;;;;;;4.60;2.70;;;;;;;;;;6233076;23;20060;-96
2023/04/29 16:04:22;;;;;;;3.92;2.33;;;;;;;;;;6233275;23;20056;-96
2023/04/29 16:06:52;;;;;;;7.18;2.47;;;;;;;;;;6227453;23;20011;-96
2023/04/29 16:09:22;;;;;;;4.53;3.05;;;;;;;;;;6224235;23;20426;-96
2023/04/29 16:11:51;;;;;;;4.97;3.00;;;;;;;;;;6201085;23;20039;-96
2023/04/29 16:14:18;;;;;;;6.07;2.60;;;;;;;;;;6202021;23;20009;-96
2023/04/29 16:16:44;;;;;;;4.95;2.15;;;;;;;;;;6208494;22;20013;-96
2023/04/29 16:19:11;;;;;;;5.00;2.47;;;;;;;;;;6175966;23;20305;-96
2023/04/29 16:21:46;;;;;;;6.32;2.78;;;;;;;;;;6154322;23;20005;-95
2023/04/29 16:24:13;;;;;;;7.63;2.58;;;;;;;;;;6173149;23;20005;-95
2023/04/29 16:26:40;;;;;;;7.75;3.22;;;;;;;;;;6172706;23;20004;-95
2023/04/29 16:29:07;;;;;;;4.28;2.40;;;;;;;;;;6170744;23;20501;-95
2023/04/29 16:31:44;;;;;;;8.23;3.42;;;;;;;;;;6168324;23;20092;-95
2023/04/29 16:34:11;;;;;;;5.50;2.90;;;;;;;;;;6171840;23;20009;-96
2023/04/29 16:36:37;;;;;;;4.25;2.83;;;;;;;;;;6143089;23;20086;-96
2023/04/29 16:39:03;;;;;;;5.15;2.70;;;;;;;;;;6166916;23;20551;-96
2023/04/29 16:41:30;;;;;;;7.20;3.35;;;;;;;;;;6168410;23;20001;-95
2023/04/29 16:43:57;;;;;;;8.02;2.88;;;;;;;;;;6146581;23;20009;-95
2023/04/29 16:46:24;;;;;;;5.28;2.75;;;;;;;;;;6170196;23;20029;-96
2023/04/29 16:48:50;;;;;;;6.95;2.33;;;;;;;;;;6169954;23;20032;-96
2023/04/29 16:51:17;;;;;;;5.20;3.03;;;;;;;;;;6144824;23;20458;-96
2023/04/29 16:53:44;;;;;;;4.20;2.53;;;;;;;;;;6146677;23;20064;-96
2023/04/29 16:56:11;;;;;;;5.57;2.95;;;;;;;;;;6171154;23;20009;-95
2023/04/29 16:58:37;;;;;;;5.53;2.90;;;;;;;;;;6170673;23;20057;-96
2023/04/29 17:01:07;;;;;;;4.50;2.58;;;;;;;;;;6172095;23;20040;-96
2023/04/29 17:03:33;;;;;;;5.00;3.15;;;;;;;;;;6147960;23;20034;-96
2023/04/29 17:06:02;;;;;;;5.30;2.80;;;;;;;;;;6148264;23;20068;-96
2023/04/29 17:08:29;;;;;;;4.93;2.80;;;;;;;;;;6148472;23;20013;-96
2023/04/29 17:10:55;;;;;;;3.90;2.97;;;;;;;;;;6168964;23;20281;-95
2023/04/29 17:13:21;;;;;;;4.07;2.47;;;;;;;;;;6145300;23;20009;-95
2023/04/29 17:15:48;;;;;;;5.22;2.60;;;;;;;;;;6144398;23;20009;-96
2023/04/29 17:18:24;;;;;;;4.47;2.63;;;;;;;;;;6175887;23;20052;-95
2023/04/29 17:20:50;;;;;;;4.05;2.63;;;;;;;;;;6195552;23;20012;-96
2023/04/29 17:23:16;;;;;;;5.75;2.47;;;;;;;;;;6218754;23;20032;-96
2023/04/29 17:25:45;;;;;;;5.40;2.60;;;;;;;;;;6194933;23;20435;-96
2023/04/29 17:28:11;;;;;;;3.95;2.72;;;;;;;;;;6218837;23;20427;-96
2023/04/29 17:30:38;;;;;;;7.20;2.60;;;;;;;;;;6221157;23;20001;-95
2023/04/29 17:33:04;;;;;;;8.07;2.70;;;;;;;;;;6193234;23;20114;-96
2023/04/29 17:35:32;;;;;;;6.90;3.03;;;;;;;;;;6194561;23;20060;-96
2023/04/29 17:38:04;;;;;;;11.38;3.00;;;;;;;;;;6218678;23;20070;-96
2023/04/29 17:40:32;;;;;;;5.45;2.42;;;;;;;;;;6220554;23;20035;-96
2023/04/29 17:43:01;;;;;;;5.78;2.88;;;;;;;;;;6199542;23;20028;-96
2023/04/29 17:45:27;;;;;;;8.07;2.60;;;;;;;;;;6197350;23;20004;-96
2023/04/29 17:47:53;;;;;;;5.95;2.95;;;;;;;;;;6202741;23;20017;-96
2023/04/29 17:50:20;;;;;;;5.30;2.67;;;;;;;;;;6225379;23;20048;-96
2023/04/29 17:52:48;;;;;;;4.10;3.10;;;;;;;;;;6223684;23;20008;-96
2023/04/29 17:55:17;;;;;;;9.88;3.60;;;;;;;;;;6222486;23;20009;-96
2023/04/29 17:57:43;;;;;;;11.52;3.15;;;;;;;;;;6222884;23;20309;-96
2023/04/29 18:00:11;;;;;;;5.90;2.72;;;;;;;;;;6194438;23;20162;-96
2023/04/29 18:02:43;;;;;;;5.60;3.20;;;;;;;;;;6219539;23;20060;-96
2023/04/29 18:05:09;;;;;;;6.60;3.13;;;;;;;;;;6199563;23;20426;-96
2023/04/29 18:07:35;;;;;;;7.30;3.05;;;;;;;;;;6193349;23;20100;-96
2023/04/29 18:10:01;;;;;;;10.27;3.10;;;;;;;;;;6194461;23;20032;-96
2023/04/29 18:12:31;;;;;;;6.90;3.30;;;;;;;;;;6195286;23;20012;-96
2023/04/29 18:14:57;;;;;;;12.52;4.35;;;;;;;;;;6221804;23;20462;-96
2023/04/29 18:17:23;;;;;;;8.63;3.58;;;;;;;;;;6200051;22;20071;-96
2023/04/29 18:19:56;;;;;;;7.80;3.33;;;;;;;;;;6223596;22;20012;-96
2023/04/29 18:22:22;;;;;;;11.02;4.15;;;;;;;;;;6196176;23;20104;-96
2023/04/29 18:24:49;;;;;;;10.10;3.55;;;;;;;;;;6221364;23;20005;-96
2023/04/29 18:27:16;;;;;;;6.32;2.75;;;;;;;;;;6195224;23;20454;-95
2023/04/29 18:29:44;;;;;;;17.02;3.80;;;;;;;;;;6217912;23;20008;-96
2023/04/29 18:32:11;;;;;;;4.95;3.03;;;;;;;;;;6217200;23;20004;-95
2023/04/29 18:34:37;;;;;;;9.32;3.42;;;;;;;;;;6218722;23;20638;-96
2023/04/29 18:37:04;;;;;;;12.27;4.93;;;;;;;;;;6194120;23;20044;-96
2023/04/29 18:39:30;;;;;;;15.13;4.63;;;;;;;;;;6217798;23;20559;-96
2023/04/29 18:41:56;;;;;;;12.07;4.07;;;;;;;;;;6191171;23;20427;-96
2023/04/29 18:44:24;;;;;;;5.97;3.55;;;;;;;;;;6219970;23;20034;-96
2023/04/29 18:46:50;;;;;;;8.57;4.30;;;;;;;;;;6195508;23;20067;-96